sensor_id;sensor_type;location;lat;lon;timestamp;pressure;altitude;pressure_sealevel;temperature;humidity
27864;BME280;15980;51.092;13.916;2023-03-01T00:05:21;100006.94;;;-5.50;87.63
27864;BME280;15980;51.092;13.916;2023-03-01T00:15:22;99992.31;;;-5.60;87.91
27864;BME280;15980;51.092;13.916;2023-03-01T00:25:22;99992.91;;;-5.65;88.11
27864;BME280;15980;51.092;13.916;2023-03-01T00:35:22;99995.00;;;-5.60;88.61
27864;BME280;15980;51.092;13.916;2023-03-01T00:45:23;99979.31;;;-5.70;89.00
27864;BME280;15980;51.092;13.916;2023-03-01T00:55:24;99974.59;;;-5.75;88.74
27864;BME280;15980;51.092;13.916;2023-03-01T01:05:25;99981.34;;;-5.85;88.47
27864;BME280;15980;51.092;13.916;2023-03-01T01:15:25;99978.91;;;-5.93;88.35
27864;BME280;15980;51.092;13.916;2023-03-01T01:25:26;99964.94;;;-5.95;89.41
27864;BME280;15980;51.092;13.916;2023-03-01T01:35:27;99955.66;;;-6.06;88.51
27864;BME280;15980;51.092;13.916;2023-03-01T01:55:31;99949.22;;;-6.18;88.10
27864;BME280;15980;51.092;13.916;2023-03-01T02:05:56;99946.56;;;-6.18;88.63
27864;BME280;15980;51.092;13.916;2023-03-01T02:16:02;99929.91;;;-6.20;88.87
27864;BME280;15980;51.092;13.916;2023-03-01T02:26:11;99910.59;;;-6.22;88.39
27864;BME280;15980;51.092;13.916;2023-03-01T02:36:18;99907.31;;;-6.24;88.49
27864;BME280;15980;51.092;13.916;2023-03-01T02:46:25;99894.97;;;-6.25;89.21
27864;BME280;15980;51.092;13.916;2023-03-01T02:56:26;99894.94;;;-6.39;88.45
27864;BME280;15980;51.092;13.916;2023-03-01T03:06:26;99903.91;;;-6.53;88.32
27864;BME280;15980;51.092;13.916;2023-03-01T03:16:26;99898.34;;;-6.65;88.35
27864;BME280;15980;51.092;13.916;2023-03-01T03:26:27;99899.56;;;-6.67;88.03
27864;BME280;15980;51.092;13.916;2023-03-01T03:36:27;99884.91;;;-6.84;86.91
27864;BME280;15980;51.092;13.916;2023-03-01T03:46:27;99879.56;;;-6.91;87.71
27864;BME280;15980;51.092;13.916;2023-03-01T03:56:28;99880.69;;;-7.07;86.82
27864;BME280;15980;51.092;13.916;2023-03-01T04:06:29;99895.06;;;-7.08;87.50
27864;BME280;15980;51.092;13.916;2023-03-01T04:16:29;99886.38;;;-7.16;87.40
27864;BME280;15980;51.092;13.916;2023-03-01T04:26:30;99887.41;;;-7.17;88.18
27864;BME280;15980;51.092;13.916;2023-03-01T04:36:30;99887.81;;;-7.20;88.12
27864;BME280;15980;51.092;13.916;2023-03-01T04:46:30;99878.34;;;-7.23;88.23
27864;BME280;15980;51.092;13.916;2023-03-01T04:56:31;99885.94;;;-7.26;88.35
27864;BME280;15980;51.092;13.916;2023-03-01T05:06:31;99887.94;;;-7.35;88.03
27864;BME280;15980;51.092;13.916;2023-03-01T05:16:32;99871.66;;;-7.40;88.10
27864;BME280;15980;51.092;13.916;2023-03-01T05:26:32;99866.34;;;-7.40;88.01
27864;BME280;15980;51.092;13.916;2023-03-01T05:36:33;99870.28;;;-7.36;87.80
27864;BME280;15980;51.092;13.916;2023-03-01T05:46:33;99856.38;;;-7.32;87.82
27864;BME280;15980;51.092;13.916;2023-03-01T05:56:34;99860.09;;;-7.26;87.39
27864;BME280;15980;51.092;13.916;2023-03-01T06:06:35;99865.69;;;-7.14;86.95
27864;BME280;15980;51.092;13.916;2023-03-01T06:16:35;99868.78;;;-7.11;85.94
27864;BME280;15980;51.092;13.916;2023-03-01T06:26:35;99883.25;;;-6.92;86.55
27864;BME280;15980;51.092;13.916;2023-03-01T06:36:36;99892.78;;;-6.70;86.65
27864;BME280;15980;51.092;13.916;2023-03-01T06:46:36;99894.72;;;-6.44;86.47
27864;BME280;15980;51.092;13.916;2023-03-01T06:56:36;99888.88;;;-6.06;86.58
27864;BME280;15980;51.092;13.916;2023-03-01T07:06:36;99886.78;;;-5.78;86.51
27864;BME280;15980;51.092;13.916;2023-03-01T07:16:37;99874.88;;;-5.49;86.13
27864;BME280;15980;51.092;13.916;2023-03-01T07:26:37;99855.25;;;-5.10;86.41
27864;BME280;15980;51.092;13.916;2023-03-01T07:36:38;99848.56;;;-4.43;88.34
27864;BME280;15980;51.092;13.916;2023-03-01T07:46:38;99848.06;;;-3.95;87.71
27864;BME280;15980;51.092;13.916;2023-03-01T07:56:39;99846.91;;;-3.56;87.53
27864;BME280;15980;51.092;13.916;2023-03-01T08:06:40;99833.47;;;-3.12;87.98
27864;BME280;15980;51.092;13.916;2023-03-01T08:16:40;99829.91;;;-2.88;87.82
27864;BME280;15980;51.092;13.916;2023-03-01T08:26:40;99828.59;;;-2.49;87.00
27864;BME280;15980;51.092;13.916;2023-03-01T08:36:43;99830.13;;;-2.11;86.18
27864;BME280;15980;51.092;13.916;2023-03-01T08:46:43;99832.38;;;-1.97;84.26
27864;BME280;15980;51.092;13.916;2023-03-01T08:56:44;99829.94;;;-1.75;84.14
27864;BME280;15980;51.092;13.916;2023-03-01T09:06:45;99825.41;;;-1.51;82.28
27864;BME280;15980;51.092;13.916;2023-03-01T09:16:45;99805.84;;;-1.11;81.04
27864;BME280;15980;51.092;13.916;2023-03-01T09:26:46;99796.88;;;-0.88;80.82
27864;BME280;15980;51.092;13.916;2023-03-01T09:36:47;99794.72;;;-0.46;79.57
27864;BME280;15980;51.092;13.916;2023-03-01T09:46:47;99792.69;;;-0.11;78.60
27864;BME280;15980;51.092;13.916;2023-03-01T09:57:02;99791.97;;;0.27;76.65
27864;BME280;15980;51.092;13.916;2023-03-01T10:07:17;99784.66;;;0.61;76.61
27864;BME280;15980;51.092;13.916;2023-03-01T10:38:30;99795.53;;;1.54;70.64
27864;BME280;15980;51.092;13.916;2023-03-01T10:48:31;99782.72;;;1.71;70.70
27864;BME280;15980;51.092;13.916;2023-03-01T10:58:33;99776.88;;;1.79;68.65
27864;BME280;15980;51.092;13.916;2023-03-01T11:18:39;99756.03;;;2.12;66.95
27864;BME280;15980;51.092;13.916;2023-03-01T11:28:41;99758.97;;;2.05;65.05
27864;BME280;15980;51.092;13.916;2023-03-01T11:38:42;99754.88;;;2.03;66.26
27864;BME280;15980;51.092;13.916;2023-03-01T12:30:29;99710.34;;;2.63;63.61
27864;BME280;15980;51.092;13.916;2023-03-01T12:51:15;99685.22;;;2.82;60.68
27864;BME280;15980;51.092;13.916;2023-03-01T13:01:45;99666.59;;;3.06;60.72
27864;BME280;15980;51.092;13.916;2023-03-01T13:11:49;99667.97;;;3.09;62.25
27864;BME280;15980;51.092;13.916;2023-03-01T13:21:52;99665.81;;;3.26;61.11
27864;BME280;15980;51.092;13.916;2023-03-01T13:41:55;99665.03;;;3.41;60.34
27864;BME280;15980;51.092;13.916;2023-03-01T13:51:56;99647.13;;;3.35;58.37
27864;BME280;15980;51.092;13.916;2023-03-01T14:01:59;99650.94;;;3.59;58.38
27864;BME280;15980;51.092;13.916;2023-03-01T14:12:18;99643.88;;;3.68;58.75
27864;BME280;15980;51.092;13.916;2023-03-01T14:22:28;99639.53;;;3.72;58.27
27864;BME280;15980;51.092;13.916;2023-03-01T14:32:31;99623.78;;;3.79;58.48
27864;BME280;15980;51.092;13.916;2023-03-01T14:42:35;99601.81;;;3.91;59.20
27864;BME280;15980;51.092;13.916;2023-03-01T14:52:42;99599.09;;;3.91;57.45
27864;BME280;15980;51.092;13.916;2023-03-01T15:02:43;99592.56;;;3.87;56.74
27864;BME280;15980;51.092;13.916;2023-03-01T15:12:45;99593.13;;;3.94;59.29
27864;BME280;15980;51.092;13.916;2023-03-01T15:22:46;99587.13;;;3.87;58.71
27864;BME280;15980;51.092;13.916;2023-03-01T15:32:46;99568.69;;;3.84;59.68
27864;BME280;15980;51.092;13.916;2023-03-01T15:42:46;99574.97;;;3.54;61.93
27864;BME280;15980;51.092;13.916;2023-03-01T15:52:47;99554.34;;;3.28;62.13
27864;BME280;15980;51.092;13.916;2023-03-01T16:02:47;99556.25;;;3.12;62.74
27864;BME280;15980;51.092;13.916;2023-03-01T16:12:48;99553.78;;;2.95;63.87
27864;BME280;15980;51.092;13.916;2023-03-01T16:22:48;99559.72;;;2.72;64.91
27864;BME280;15980;51.092;13.916;2023-03-01T16:32:50;99566.41;;;1.86;69.83
27864;BME280;15980;51.092;13.916;2023-03-01T16:42:51;99584.88;;;1.25;72.81
27864;BME280;15980;51.092;13.916;2023-03-01T16:52:51;99584.91;;;0.72;74.69
27864;BME280;15980;51.092;13.916;2023-03-01T17:02:51;99575.53;;;0.30;75.38
27864;BME280;15980;51.092;13.916;2023-03-01T17:12:52;99579.31;;;0.08;76.68
27864;BME280;15980;51.092;13.916;2023-03-01T17:22:52;99574.69;;;-0.14;76.60
27864;BME280;15980;51.092;13.916;2023-03-01T17:32:52;99587.00;;;-0.40;75.44
27864;BME280;15980;51.092;13.916;2023-03-01T17:42:52;99605.38;;;-0.53;75.07
27864;BME280;15980;51.092;13.916;2023-03-01T17:52:53;99598.19;;;-0.81;75.01
27864;BME280;15980;51.092;13.916;2023-03-01T18:02:53;99611.63;;;-0.98;75.93
27864;BME280;15980;51.092;13.916;2023-03-01T18:12:53;99614.63;;;-1.11;76.22
27864;BME280;15980;51.092;13.916;2023-03-01T18:22:54;99598.28;;;-1.21;79.19
27864;BME280;15980;51.092;13.916;2023-03-01T18:32:54;99583.69;;;-1.37;79.50
27864;BME280;15980;51.092;13.916;2023-03-01T18:42:54;99595.00;;;-1.52;79.76
27864;BME280;15980;51.092;13.916;2023-03-01T18:52:55;99587.47;;;-1.67;79.83
27864;BME280;15980;51.092;13.916;2023-03-01T19:02:55;99584.19;;;-1.80;80.39
27864;BME280;15980;51.092;13.916;2023-03-01T19:12:55;99596.25;;;-1.83;79.65
27864;BME280;15980;51.092;13.916;2023-03-01T19:22:56;99587.84;;;-1.86;80.70
27864;BME280;15980;51.092;13.916;2023-03-01T19:32:56;99585.34;;;-1.76;80.23
27864;BME280;15980;51.092;13.916;2023-03-01T19:42:56;99578.13;;;-1.87;79.85
27864;BME280;15980;51.092;13.916;2023-03-01T19:52:57;99567.69;;;-2.12;81.04
27864;BME280;15980;51.092;13.916;2023-03-01T20:02:57;99570.25;;;-2.29;82.03
27864;BME280;15980;51.092;13.916;2023-03-01T20:12:58;99572.34;;;-2.31;81.03
27864;BME280;15980;51.092;13.916;2023-03-01T20:22:58;99584.16;;;-2.44;80.83
27864;BME280;15980;51.092;13.916;2023-03-01T20:32:59;99576.69;;;-2.54;82.03
27864;BME280;15980;51.092;13.916;2023-03-01T20:42:59;99560.22;;;-2.57;81.39
27864;BME280;15980;51.092;13.916;2023-03-01T20:53:00;99561.50;;;-2.71;82.19
27864;BME280;15980;51.092;13.916;2023-03-01T21:03:00;99559.63;;;-2.71;83.46
27864;BME280;15980;51.092;13.916;2023-03-01T21:13:00;99556.81;;;-2.76;83.72
27864;BME280;15980;51.092;13.916;2023-03-01T21:23:01;99557.88;;;-2.89;83.32
27864;BME280;15980;51.092;13.916;2023-03-01T21:33:01;99553.06;;;-2.98;82.91
27864;BME280;15980;51.092;13.916;2023-03-01T21:43:01;99559.50;;;-2.99;82.21
27864;BME280;15980;51.092;13.916;2023-03-01T21:53:01;99538.19;;;-3.12;82.60
27864;BME280;15980;51.092;13.916;2023-03-01T22:03:02;99511.72;;;-3.09;81.31
27864;BME280;15980;51.092;13.916;2023-03-01T22:13:02;99519.66;;;-3.14;80.43
27864;BME280;15980;51.092;13.916;2023-03-01T22:23:02;99528.50;;;-3.25;79.33
27864;BME280;15980;51.092;13.916;2023-03-01T22:33:03;99528.25;;;-3.35;79.39
27864;BME280;15980;51.092;13.916;2023-03-01T22:43:04;99526.59;;;-3.36;79.50
27864;BME280;15980;51.092;13.916;2023-03-01T22:53:04;99519.94;;;-3.45;79.91
27864;BME280;15980;51.092;13.916;2023-03-01T23:03:04;99518.59;;;-3.55;79.04
27864;BME280;15980;51.092;13.916;2023-03-01T23:13:05;99528.97;;;-3.58;79.15
27864;BME280;15980;51.092;13.916;2023-03-01T23:23:05;99533.25;;;-3.69;79.41
27864;BME280;15980;51.092;13.916;2023-03-01T23:33:05;99527.84;;;-3.81;79.03
27864;BME280;15980;51.092;13.916;2023-03-01T23:43:05;99532.78;;;-3.96;79.27
27864;BME280;15980;51.092;13.916;2023-03-01T23:53:15;99524.44;;;-4.06;79.75
